createdAt,value
2018-06-30T00:00:05.281Z,14.50
2018-06-30T00:02:33.063Z,14.50
2018-06-30T00:05:00.853Z,14.50
2018-06-30T00:07:28.656Z,14.50
2018-06-30T00:09:56.482Z,14.40
2018-06-30T00:12:54.952Z,14.40
2018-06-30T00:15:22.971Z,14.40
2018-06-30T00:17:51.088Z,14.50
2018-06-30T00:20:18.970Z,14.40
2018-06-30T00:22:46.846Z,14.40
2018-06-30T00:25:14.827Z,14.40
2018-06-30T00:27:42.875Z,14.40
2018-06-30T00:30:10.898Z,14.40
2018-06-30T00:32:38.958Z,14.40
2018-06-30T00:35:07.020Z,14.40
2018-06-30T00:37:34.941Z,14.40
2018-06-30T00:40:02.983Z,14.40
2018-06-30T00:42:31.022Z,14.40
2018-06-30T00:44:59.070Z,14.40
2018-06-30T00:47:26.946Z,14.30
2018-06-30T00:49:54.908Z,14.30
2018-06-30T00:52:22.792Z,14.30
2018-06-30T00:54:50.785Z,14.30
2018-06-30T00:57:18.686Z,14.30
2018-06-30T00:59:46.723Z,14.30
2018-06-30T01:02:14.639Z,14.30
2018-06-30T01:04:42.652Z,14.30
2018-06-30T01:07:10.684Z,14.30
2018-06-30T01:09:38.679Z,14.30
2018-06-30T01:12:06.599Z,14.30
2018-06-30T01:14:34.615Z,14.30
2018-06-30T01:17:02.603Z,14.20
2018-06-30T01:19:30.618Z,14.20
2018-06-30T01:21:58.638Z,14.20
2018-06-30T01:24:26.727Z,14.20
2018-06-30T01:26:54.677Z,14.10
2018-06-30T01:29:30.286Z,14.10
2018-06-30T01:31:58.080Z,14.20
2018-06-30T01:34:25.942Z,14.20
2018-06-30T01:36:53.754Z,14.10
2018-06-30T01:39:21.547Z,14.10
2018-06-30T01:41:49.384Z,14.10
2018-06-30T01:44:53.016Z,14.00
2018-06-30T01:47:20.970Z,14.10
2018-06-30T01:49:48.977Z,14.10
2018-06-30T01:52:16.901Z,14.10
2018-06-30T01:54:44.842Z,14.20
2018-06-30T01:57:12.749Z,14.20
2018-06-30T01:59:40.765Z,14.20
2018-06-30T02:02:08.685Z,14.20
2018-06-30T02:04:36.654Z,14.10
2018-06-30T02:07:04.942Z,14.10
2018-06-30T02:09:32.914Z,14.20
2018-06-30T02:12:00.865Z,14.20
2018-06-30T02:14:28.822Z,14.30
2018-06-30T02:16:56.757Z,14.40
2018-06-30T02:19:24.819Z,14.50
2018-06-30T02:21:52.809Z,14.50
2018-06-30T02:24:20.811Z,14.60
2018-06-30T02:26:48.737Z,14.60
2018-06-30T02:29:16.720Z,14.60
2018-06-30T02:31:44.643Z,14.60
2018-06-30T02:34:12.704Z,14.60
2018-06-30T02:39:11.865Z,14.60
2018-06-30T02:41:39.733Z,14.60
2018-06-30T02:44:07.555Z,14.60
2018-06-30T02:46:35.315Z,14.50
2018-06-30T02:49:03.139Z,14.60
2018-06-30T02:51:30.993Z,14.50
2018-06-30T02:53:58.869Z,14.60
2018-06-30T02:56:26.686Z,14.60
2018-06-30T02:58:54.541Z,14.50
2018-06-30T03:01:22.359Z,14.50
2018-06-30T03:03:50.425Z,14.50
2018-06-30T03:06:18.548Z,14.50
2018-06-30T03:08:46.695Z,14.50
2018-06-30T03:11:14.801Z,14.50
2018-06-30T03:13:42.669Z,14.40
2018-06-30T03:16:13.512Z,14.30
2018-06-30T03:18:41.314Z,14.30
2018-06-30T03:21:09.127Z,14.30
2018-06-30T03:23:36.899Z,14.20
2018-06-30T03:26:04.804Z,14.20
2018-06-30T03:28:32.653Z,14.20
2018-06-30T03:31:00.606Z,14.20
2018-06-30T03:33:28.351Z,14.20
2018-06-30T03:35:56.216Z,14.20
2018-06-30T03:38:24.025Z,14.20
2018-06-30T03:40:51.821Z,14.20
2018-06-30T03:43:19.620Z,14.30
2018-06-30T03:45:47.389Z,14.30
2018-06-30T03:48:15.215Z,14.30
2018-06-30T03:50:43.008Z,14.20
2018-06-30T03:53:10.812Z,14.20
2018-06-30T03:55:38.694Z,14.20
2018-06-30T03:58:06.500Z,14.20
2018-06-30T04:00:34.349Z,14.20
2018-06-30T04:03:02.144Z,14.30
2018-06-30T04:05:30.020Z,14.20
2018-06-30T04:07:57.834Z,14.20
2018-06-30T04:10:25.570Z,14.20
2018-06-30T04:12:53.322Z,14.20
2018-06-30T04:15:21.137Z,14.20
2018-06-30T04:17:48.901Z,14.20
2018-06-30T04:20:16.644Z,14.20
2018-06-30T04:22:45.408Z,14.30
2018-06-30T04:25:13.209Z,14.40
2018-06-30T04:27:41.010Z,14.50
2018-06-30T04:30:08.902Z,14.60
2018-06-30T04:32:36.688Z,14.70
2018-06-30T04:35:04.846Z,14.80
2018-06-30T04:37:32.576Z,14.90
2018-06-30T04:40:10.998Z,15.00
2018-06-30T04:45:04.287Z,15.20
2018-06-30T04:47:32.122Z,15.30
2018-06-30T04:49:59.928Z,15.40
2018-06-30T04:52:27.744Z,15.50
2018-06-30T04:54:55.523Z,15.50
2018-06-30T04:57:23.286Z,15.60
2018-06-30T04:59:51.077Z,15.70
2018-06-30T05:02:18.841Z,15.90
2018-06-30T05:04:46.585Z,15.90
2018-06-30T05:07:14.348Z,16.00
2018-06-30T05:09:42.150Z,16.10
2018-06-30T05:12:09.898Z,16.20
2018-06-30T05:14:37.663Z,16.30
2018-06-30T05:17:05.498Z,16.40
2018-06-30T05:19:33.242Z,16.50
2018-06-30T05:22:01.094Z,16.60
2018-06-30T05:24:28.903Z,16.60
2018-06-30T05:26:56.693Z,16.70
2018-06-30T05:29:24.644Z,16.80
2018-06-30T05:31:52.467Z,17.00
2018-06-30T05:34:20.298Z,17.10
2018-06-30T05:36:48.128Z,17.20
2018-06-30T05:39:16.028Z,17.30
2018-06-30T05:41:43.877Z,17.30
2018-06-30T05:44:11.760Z,17.40
2018-06-30T05:46:39.626Z,17.60
2018-06-30T05:49:07.539Z,17.70
2018-06-30T05:51:35.298Z,17.80
2018-06-30T05:54:03.158Z,17.90
2018-06-30T05:56:31.000Z,18.00
2018-06-30T05:58:58.828Z,17.90
2018-06-30T06:01:26.772Z,17.90
2018-06-30T06:03:54.591Z,18.10
2018-06-30T06:06:22.380Z,18.20
2018-06-30T06:08:50.208Z,18.30
2018-06-30T06:11:18.009Z,18.40
2018-06-30T06:14:36.717Z,18.30
2018-06-30T06:17:04.805Z,18.40
2018-06-30T06:19:43.410Z,18.60
2018-06-30T06:22:11.197Z,18.90
2018-06-30T06:24:38.999Z,19.00
2018-06-30T06:27:06.832Z,19.20
2018-06-30T06:29:34.608Z,19.40
2018-06-30T06:32:02.460Z,19.50
2018-06-30T06:34:30.339Z,19.40
2018-06-30T06:36:58.095Z,19.50
2018-06-30T06:39:26.080Z,19.50
2018-06-30T06:41:53.860Z,19.50
2018-06-30T06:44:21.780Z,19.50
2018-06-30T06:46:49.593Z,19.60
2018-06-30T06:49:17.523Z,19.60
2018-06-30T06:51:45.508Z,19.50
2018-06-30T06:54:13.318Z,19.50
2018-06-30T06:56:41.251Z,19.60
2018-06-30T06:59:09.065Z,19.80
2018-06-30T07:01:36.883Z,19.80
2018-06-30T07:04:04.749Z,19.80
2018-06-30T07:06:54.167Z,19.90
2018-06-30T07:09:22.004Z,20.00
2018-06-30T07:11:49.852Z,20.00
2018-06-30T07:14:17.706Z,20.30
2018-06-30T07:16:49.591Z,19.80
2018-06-30T07:19:17.575Z,20.20
2018-06-30T07:21:45.497Z,20.60
2018-06-30T07:24:13.544Z,20.70
2018-06-30T07:26:41.409Z,20.80
2018-06-30T07:29:09.354Z,21.00
2018-06-30T07:32:09.861Z,21.00
2018-06-30T07:34:39.573Z,20.80
2018-06-30T07:37:07.360Z,21.10
2018-06-30T07:39:35.207Z,21.30
2018-06-30T07:42:03.033Z,21.50
2018-06-30T07:44:30.941Z,21.70
2018-06-30T07:46:58.797Z,21.70
2018-06-30T07:50:01.045Z,21.90
2018-06-30T07:52:28.998Z,22.00
2018-06-30T07:54:56.979Z,22.20
2018-06-30T07:57:24.935Z,22.30
2018-06-30T07:59:52.858Z,22.30
2018-06-30T08:02:21.070Z,22.30
2018-06-30T08:04:48.924Z,22.30
2018-06-30T08:07:16.782Z,22.30
2018-06-30T08:09:44.617Z,22.40
2018-06-30T08:12:12.397Z,22.70
2018-06-30T08:14:40.440Z,22.80
2018-06-30T08:17:08.362Z,23.00
2018-06-30T08:19:36.149Z,23.00
2018-06-30T08:22:04.033Z,23.00
2018-06-30T08:24:31.855Z,23.20
2018-06-30T08:26:59.658Z,23.40
2018-06-30T08:29:27.569Z,23.40
2018-06-30T08:31:55.298Z,23.60
2018-06-30T08:34:23.126Z,23.60
2018-06-30T08:36:51.024Z,23.60
2018-06-30T08:39:18.910Z,23.90
2018-06-30T08:41:46.697Z,24.00
2018-06-30T08:44:14.493Z,23.90
2018-06-30T08:46:42.357Z,23.80
2018-06-30T08:51:37.896Z,24.30
2018-06-30T08:54:06.683Z,24.40
2018-06-30T08:56:34.513Z,24.50
2018-06-30T08:59:02.313Z,24.80
2018-06-30T09:01:30.112Z,25.20
2018-06-30T09:03:57.913Z,25.60
2018-06-30T09:07:06.259Z,25.60
2018-06-30T09:09:34.213Z,25.00
2018-06-30T09:12:39.014Z,25.40
2018-06-30T09:15:06.928Z,25.50
2018-06-30T09:17:34.915Z,25.50
2018-06-30T09:20:02.783Z,25.20
2018-06-30T09:22:30.598Z,25.30
2018-06-30T09:24:58.570Z,25.30
2018-06-30T09:27:26.430Z,25.40
2018-06-30T09:29:54.245Z,25.10
2018-06-30T09:32:24.058Z,25.20
2018-06-30T09:34:51.927Z,25.30
2018-06-30T09:37:19.814Z,25.40
2018-06-30T09:39:47.558Z,25.30
2018-06-30T09:42:15.401Z,25.40
2018-06-30T09:44:45.243Z,25.50
2018-06-30T09:47:13.044Z,25.50
2018-06-30T09:49:40.950Z,25.20
2018-06-30T09:52:08.788Z,25.10
2018-06-30T09:54:36.792Z,25.10
2018-06-30T09:57:04.769Z,25.40
2018-06-30T10:00:00.679Z,25.50
2018-06-30T10:02:28.582Z,25.50
2018-06-30T10:04:56.651Z,25.50
2018-06-30T10:07:24.826Z,25.50
2018-06-30T10:09:52.734Z,25.50
2018-06-30T10:12:20.543Z,25.60
2018-06-30T10:14:48.372Z,25.60
2018-06-30T10:17:16.202Z,25.60
2018-06-30T10:19:43.998Z,25.70
2018-06-30T10:22:18.905Z,25.90
2018-06-30T10:24:46.893Z,25.90
2018-06-30T10:27:14.798Z,26.00
2018-06-30T10:29:42.872Z,26.00
2018-06-30T10:32:10.866Z,26.30
2018-06-30T10:34:38.901Z,25.90
2018-06-30T10:37:07.127Z,26.10
2018-06-30T10:39:35.087Z,26.30
2018-06-30T10:42:03.155Z,26.60
2018-06-30T10:47:31.963Z,26.90
2018-06-30T10:49:59.968Z,27.30
2018-06-30T10:52:27.773Z,27.40
2018-06-30T10:54:55.596Z,27.30
2018-06-30T10:57:23.396Z,27.50
2018-06-30T10:59:52.601Z,27.60
2018-06-30T11:02:20.424Z,27.60
2018-06-30T11:04:48.298Z,27.60
2018-06-30T11:07:16.125Z,27.70
2018-06-30T11:09:44.928Z,27.80
2018-06-30T11:12:12.817Z,28.10
2018-06-30T11:14:41.085Z,28.50
2018-06-30T11:17:08.905Z,28.60
2018-06-30T11:19:37.725Z,28.90
2018-06-30T11:22:05.704Z,29.00
2018-06-30T11:24:34.448Z,29.20
2018-06-30T11:27:02.260Z,28.30
2018-06-30T11:29:30.102Z,28.20
2018-06-30T11:31:57.861Z,28.10
2018-06-30T11:34:26.612Z,27.80
2018-06-30T11:43:40.705Z,28.70
2018-06-30T11:46:08.503Z,29.90
2018-06-30T11:48:36.373Z,29.10
2018-06-30T11:51:04.188Z,29.10
2018-06-30T11:53:32.014Z,29.90
2018-06-30T11:55:59.841Z,29.70
2018-06-30T11:58:27.687Z,28.60
2018-06-30T12:00:57.516Z,29.50
2018-06-30T12:03:25.472Z,30.50
2018-06-30T12:05:53.536Z,29.80
2018-06-30T12:08:21.572Z,29.70
2018-06-30T12:10:49.881Z,28.70
2018-06-30T12:13:18.222Z,28.70
2018-06-30T12:15:46.565Z,29.00
2018-06-30T12:18:14.699Z,29.10
2018-06-30T12:20:43.273Z,29.60
2018-06-30T12:23:11.889Z,30.50
2018-06-30T12:25:40.974Z,30.50
2018-06-30T12:28:09.124Z,29.50
2018-06-30T12:30:37.467Z,30.30
2018-06-30T12:33:06.197Z,31.30
2018-06-30T12:35:34.638Z,31.30
2018-06-30T12:38:02.784Z,31.40
2018-06-30T12:40:31.044Z,31.30
2018-06-30T12:43:01.510Z,30.60
2018-06-30T12:45:29.616Z,30.40
2018-06-30T12:47:57.654Z,30.50
2018-06-30T12:50:25.437Z,31.10
2018-06-30T12:52:54.491Z,30.90
2018-06-30T12:55:22.310Z,30.90
2018-06-30T12:57:50.158Z,30.70
2018-06-30T13:00:18.033Z,30.70
2018-06-30T13:02:45.986Z,30.80
2018-06-30T13:05:13.820Z,30.80
2018-06-30T13:07:41.584Z,31.50
2018-06-30T13:10:09.389Z,31.10
2018-06-30T13:12:37.389Z,31.20
2018-06-30T13:15:05.355Z,31.20
2018-06-30T13:18:09.422Z,31.50
2018-06-30T13:23:18.463Z,31.10
2018-06-30T13:25:46.214Z,31.40
2018-06-30T13:28:13.976Z,31.60
2018-06-30T13:30:41.969Z,31.70
2018-06-30T13:33:09.936Z,31.70
2018-06-30T13:35:38.090Z,31.40
2018-06-30T13:38:06.093Z,31.40
2018-06-30T13:40:34.074Z,31.40
2018-06-30T13:43:02.153Z,31.50
2018-06-30T13:49:28.107Z,31.30
2018-06-30T13:52:09.017Z,31.40
2018-06-30T13:54:36.853Z,31.70
2018-06-30T13:57:04.722Z,31.70
2018-06-30T13:59:32.518Z,31.40
2018-06-30T14:02:00.382Z,31.40
2018-06-30T14:04:28.207Z,31.70
2018-06-30T14:06:56.866Z,32.30
2018-06-30T14:11:50.406Z,32.10
2018-06-30T14:19:27.382Z,32.00
2018-06-30T14:21:55.204Z,32.10
2018-06-30T14:24:23.998Z,31.80
2018-06-30T14:26:51.802Z,31.70
2018-06-30T14:29:19.643Z,32.10
2018-06-30T14:31:47.424Z,32.60
2018-06-30T14:34:15.198Z,32.30
2018-06-30T14:36:43.076Z,32.00
2018-06-30T14:39:12.635Z,32.80
2018-06-30T14:41:40.432Z,33.10
2018-06-30T14:44:08.360Z,32.70
2018-06-30T14:46:36.287Z,32.10
2018-06-30T14:49:04.497Z,32.60
2018-06-30T14:51:32.762Z,32.00
2018-06-30T14:54:00.707Z,32.40
2018-06-30T14:56:28.571Z,32.30
2018-06-30T14:58:56.402Z,32.50
2018-06-30T15:01:24.408Z,32.20
2018-06-30T15:03:52.166Z,32.10
2018-06-30T15:06:19.963Z,32.00
2018-06-30T15:09:01.247Z,32.30
2018-06-30T15:11:29.103Z,32.10
2018-06-30T15:14:47.332Z,32.90
2018-06-30T15:17:15.197Z,32.50
2018-06-30T15:19:43.033Z,33.30
2018-06-30T15:22:10.863Z,34.00
2018-06-30T15:24:38.661Z,33.70
2018-06-30T15:27:06.511Z,33.70
2018-06-30T15:29:34.341Z,33.00
2018-06-30T15:32:02.163Z,32.50
2018-06-30T15:34:30.953Z,32.60
2018-06-30T15:36:58.695Z,33.10
2018-06-30T15:39:26.503Z,32.60
2018-06-30T15:41:54.294Z,31.60
2018-06-30T15:44:22.088Z,31.90
2018-06-30T15:46:49.872Z,32.30
2018-06-30T15:49:19.634Z,32.40
2018-06-30T15:51:47.465Z,32.50
2018-06-30T15:57:41.342Z,31.60
2018-06-30T16:03:43.811Z,32.10
2018-06-30T16:06:25.091Z,33.20
2018-06-30T16:08:52.900Z,33.00
2018-06-30T16:11:20.787Z,32.80
2018-06-30T16:13:48.561Z,32.80
2018-06-30T16:16:20.060Z,32.90
2018-06-30T16:18:47.748Z,33.10
2018-06-30T16:21:15.646Z,32.60
2018-06-30T16:23:43.396Z,32.40
2018-06-30T16:26:11.188Z,32.10
2018-06-30T16:28:38.959Z,32.70
2018-06-30T16:31:07.239Z,32.70
2018-06-30T16:33:35.430Z,32.40
2018-06-30T16:36:03.266Z,32.30
2018-06-30T16:38:31.032Z,32.20
2018-06-30T16:41:39.209Z,32.20
2018-06-30T16:44:07.300Z,32.00
2018-06-30T16:46:35.968Z,32.10
2018-06-30T16:49:03.983Z,31.50
2018-06-30T16:51:31.913Z,31.30
2018-06-30T16:53:59.918Z,31.80
2018-06-30T16:56:48.864Z,32.30
2018-06-30T16:59:16.742Z,32.20
2018-06-30T17:01:44.520Z,32.70
2018-06-30T17:04:12.306Z,32.70
2018-06-30T17:06:40.176Z,32.10
2018-06-30T17:09:10.585Z,31.80
2018-06-30T17:11:38.512Z,31.70
2018-06-30T17:14:06.398Z,31.40
2018-06-30T17:16:34.269Z,31.00
2018-06-30T17:19:02.028Z,31.10
2018-06-30T17:21:29.853Z,31.00
2018-06-30T17:23:57.670Z,30.70
2018-06-30T17:26:25.687Z,30.40
2018-06-30T17:28:53.799Z,30.10
2018-06-30T17:31:21.601Z,29.60
2018-06-30T17:36:20.985Z,28.90
2018-06-30T17:38:48.902Z,28.80
2018-06-30T17:41:16.722Z,28.80
2018-06-30T17:43:44.536Z,28.80
2018-06-30T17:46:12.344Z,28.80
2018-06-30T17:48:40.134Z,28.70
2018-06-30T17:51:08.019Z,28.70
2018-06-30T17:53:35.866Z,28.60
2018-06-30T17:56:04.008Z,28.50
2018-06-30T17:58:31.893Z,28.40
2018-06-30T18:00:59.676Z,28.30
2018-06-30T18:03:27.436Z,28.30
2018-06-30T18:05:55.242Z,28.30
2018-06-30T18:08:23.075Z,28.50
2018-06-30T18:10:50.895Z,28.80
2018-06-30T18:13:18.788Z,28.60
2018-06-30T18:15:46.602Z,28.30
2018-06-30T18:18:14.431Z,28.20
2018-06-30T18:20:42.273Z,28.00
2018-06-30T18:23:10.071Z,27.90
2018-06-30T18:25:37.850Z,28.00
2018-06-30T18:28:22.400Z,28.10
2018-06-30T18:30:50.245Z,28.10
2018-06-30T18:33:18.073Z,27.70
2018-06-30T18:35:45.904Z,27.60
2018-06-30T18:38:14.733Z,27.40
2018-06-30T18:40:42.545Z,27.40
2018-06-30T18:43:10.327Z,27.20
2018-06-30T18:45:38.120Z,27.20
2018-06-30T18:48:05.936Z,27.10
2018-06-30T18:50:33.723Z,27.00
2018-06-30T18:53:01.513Z,27.00
2018-06-30T18:58:02.871Z,26.90
2018-06-30T19:00:30.702Z,26.80
2018-06-30T19:02:58.548Z,26.70
2018-06-30T19:05:26.327Z,26.60
2018-06-30T19:07:54.163Z,26.50
2018-06-30T19:10:22.081Z,26.50
2018-06-30T19:12:49.918Z,26.30
2018-06-30T19:15:17.700Z,26.20
2018-06-30T19:17:45.459Z,26.20
2018-06-30T19:20:13.365Z,26.10
2018-06-30T19:22:41.317Z,26.00
2018-06-30T19:25:09.094Z,25.90
2018-06-30T19:27:36.968Z,26.00
2018-06-30T19:30:05.165Z,25.90
2018-06-30T19:32:32.954Z,25.80
2018-06-30T19:38:02.718Z,25.60
2018-06-30T19:40:41.503Z,25.50
2018-06-30T19:43:09.375Z,25.50
2018-06-30T19:45:37.131Z,25.40
2018-06-30T19:48:04.956Z,25.30
2018-06-30T19:50:32.746Z,25.20
2018-06-30T19:53:00.501Z,25.20
2018-06-30T19:55:28.322Z,25.00
2018-06-30T19:57:56.056Z,24.80
2018-06-30T20:00:23.786Z,24.80
2018-06-30T20:02:51.576Z,24.80
2018-06-30T20:05:19.327Z,24.80
2018-06-30T20:07:53.395Z,24.80
2018-06-30T20:10:21.380Z,24.60
2018-06-30T20:12:49.153Z,24.50
2018-06-30T20:15:17.960Z,24.40
2018-06-30T20:18:35.797Z,24.30
2018-06-30T20:23:44.446Z,24.20
2018-06-30T20:26:12.254Z,24.30
2018-06-30T20:28:40.217Z,24.20
2018-06-30T20:31:07.865Z,24.10
2018-06-30T20:33:35.671Z,23.90
2018-06-30T20:36:03.694Z,23.80
2018-06-30T20:38:31.488Z,23.80
2018-06-30T20:40:59.319Z,23.80
2018-06-30T20:43:27.089Z,23.80
2018-06-30T20:46:29.735Z,23.80
2018-06-30T20:48:57.550Z,23.70
2018-06-30T20:51:25.428Z,23.40
2018-06-30T20:53:53.354Z,23.40
2018-06-30T20:56:21.165Z,23.40
2018-06-30T20:58:48.974Z,23.40
2018-06-30T21:01:16.861Z,23.20
2018-06-30T21:03:44.601Z,23.30
2018-06-30T21:06:13.427Z,23.20
2018-06-30T21:08:41.198Z,23.10
2018-06-30T21:11:09.062Z,23.10
2018-06-30T21:13:36.855Z,23.00
2018-06-30T21:16:04.729Z,22.80
2018-06-30T21:18:32.541Z,22.80
2018-06-30T21:21:00.334Z,22.80
2018-06-30T21:23:28.123Z,22.80
2018-06-30T21:25:55.971Z,22.80
2018-06-30T21:28:23.726Z,22.70
2018-06-30T21:30:51.555Z,22.60
2018-06-30T21:33:19.409Z,22.50
2018-06-30T21:35:47.146Z,22.40
2018-06-30T21:38:14.955Z,22.40
2018-06-30T21:40:42.719Z,22.40
2018-06-30T21:43:10.463Z,22.40
2018-06-30T21:45:38.240Z,22.30
2018-06-30T21:48:15.234Z,22.20
2018-06-30T21:50:43.074Z,22.30
2018-06-30T21:53:10.875Z,22.30
2018-06-30T21:55:38.707Z,22.20
2018-06-30T21:58:06.849Z,22.10
2018-06-30T22:00:47.501Z,22.00
2018-06-30T22:03:16.270Z,22.00
2018-06-30T22:05:44.082Z,21.80
2018-06-30T22:08:11.880Z,21.80
2018-06-30T22:10:39.648Z,21.90
2018-06-30T22:13:07.489Z,21.60
2018-06-30T22:15:35.731Z,21.50
2018-06-30T22:18:03.546Z,21.50
2018-06-30T22:20:31.970Z,21.50
2018-06-30T22:22:59.818Z,21.40
2018-06-30T22:25:27.632Z,21.30
2018-06-30T22:27:55.523Z,21.30
2018-06-30T22:30:23.453Z,21.40
2018-06-30T22:32:51.475Z,21.40
2018-06-30T22:35:19.430Z,21.30
2018-06-30T22:37:47.421Z,21.30
2018-06-30T22:40:17.313Z,21.40
2018-06-30T22:42:45.866Z,21.20
2018-06-30T22:45:14.463Z,21.10
2018-06-30T22:47:42.657Z,20.90
2018-06-30T22:50:10.587Z,20.80
2018-06-30T22:52:38.732Z,20.70
2018-06-30T22:55:06.739Z,20.60
2018-06-30T22:57:42.462Z,20.50
2018-06-30T23:03:25.582Z,20.60
2018-06-30T23:05:53.422Z,20.50
2018-06-30T23:08:21.209Z,20.40
2018-06-30T23:10:49.035Z,20.40
2018-06-30T23:13:16.880Z,20.20
2018-06-30T23:15:44.704Z,20.20
2018-06-30T23:18:12.516Z,20.10
2018-06-30T23:20:40.296Z,20.10
2018-06-30T23:23:09.158Z,20.00
2018-06-30T23:25:37.539Z,20.00
2018-06-30T23:28:05.504Z,20.00
2018-06-30T23:34:14.240Z,20.00
2018-06-30T23:36:42.067Z,20.10
2018-06-30T23:39:10.791Z,20.00
2018-06-30T23:41:38.752Z,20.00
2018-06-30T23:44:06.871Z,20.10
2018-06-30T23:46:34.690Z,20.00
2018-06-30T23:49:02.434Z,20.00
2018-06-30T23:51:30.241Z,20.00
2018-06-30T23:53:57.994Z,19.90
2018-06-30T23:56:25.774Z,19.80
2018-06-30T23:58:53.760Z,19.90
